NOAA Web Site Link Tides and Currents Home Page Transparent placeholder image

PORTS® Data Listing: 8551910 Reedy Point, DE

CO-OPS RAW PORTS DATA

************************      PRELIMINARY DATA      ************************** 

     THIS RAW DATA HAS NOT BEEN SUBJECT TO THE NATIONAL OCEAN SERVICE'S        
     QUALITY CONTROL OR QUALITY ASSURANCE PROCEDURES AND DOES NOT MEET         
     THE CRITERIA AND STANDARDS OF OFFICIAL NATIONAL OCEAN SERVICE             
     DATA.  IT IS RELEASED FOR LIMITED PUBLIC USE AS PRELIMINARY DATA TO       
     BE USED ONLY WITH APPROPRIATE CAUTION.                                    

************************      PRELIMINARY DATA      ************************** 


       CD   -   Calendar date
       T    -   Time
       TZ   -   Timezone
       PW   -   Predicted water level (feet above MLLW)
       OW   -   Observed water level (feet above MLLW)
       WS   -   Wind speed (knots)
       WD   -   Wind direction (degrees true)
       WG   -   Wind gust (knots)
       AT   -   Air temperature (degrees farenheit)
       WT   -   Water temperature (degrees farenheit)
       AP   -   Air pressure (millibars)
       SA   -   Salinty (PSU - Practical Salinity Units)
       SG   -   Specific gravity
       RH   -   Relative humidity
       AG   -   Air gap (feet)
       VI   -   Visibility (nautical miles)

       ** NOTE **
       A variable that has its data fields filled with "9"s, indicates that
       data was not collected for that sample period.
       **********


STATION NAME: Reedy Point (8551910)
****************************************************************************************************
    CD       T    TZ    PW     OW    WS   WD   WG    AT    WT    AP    SA    SG     RH    AG   VI
****************************************************************************************************
2018/06/18 08:54 EDT    1.01   1.31 -999 -999 -999  79.0  74.8 1016.9 -9.9 -9.999 -99.9 -99.99 -9.99
2018/06/18 09:00 EDT    0.91   1.25 -999 -999 -999  79.2  74.8 1016.9 -9.9 -9.999 -99.9 -99.99 -9.99
2018/06/18 09:06 EDT    0.81   1.17 -999 -999 -999  79.5  74.8 1016.9 -9.9 -9.999 -99.9 -99.99 -9.99
2018/06/18 09:12 EDT    0.71   1.11 -999 -999 -999  79.3  74.8 1016.8 -9.9 -9.999 -99.9 -99.99 -9.99
2018/06/18 09:18 EDT    0.61   1.03 -999 -999 -999  79.2  74.8 1016.8 -9.9 -9.999 -99.9 -99.99 -9.99
2018/06/18 09:24 EDT    0.51   0.97 -999 -999 -999  79.7  74.8 1016.7 -9.9 -9.999 -99.9 -99.99 -9.99
2018/06/18 09:30 EDT    0.42   0.90 -999 -999 -999  79.9  74.8 1016.7 -9.9 -9.999 -99.9 -99.99 -9.99
2018/06/18 09:36 EDT    0.34   0.84 -999 -999 -999  81.1  74.8 1016.6 -9.9 -9.999 -99.9 -99.99 -9.99
2018/06/18 09:42 EDT    0.25   0.78 -999 -999 -999  81.9  74.8 1016.5 -9.9 -9.999 -99.9 -99.99 -9.99
2018/06/18 09:48 EDT    0.18   0.73 -999 -999 -999  82.0  74.8 1016.5 -9.9 -9.999 -99.9 -99.99 -9.99
2018/06/18 09:54 EDT    0.11   0.65 -999 -999 -999  82.6  74.8 1016.3 -9.9 -9.999 -99.9 -99.99 -9.99
2018/06/18 10:00 EDT    0.04   0.61 -999 -999 -999  83.1  74.8 1016.3 -9.9 -9.999 -99.9 -99.99 -9.99
2018/06/18 10:06 EDT   -0.01   0.55 -999 -999 -999  83.1  74.8 1016.3 -9.9 -9.999 -99.9 -99.99 -9.99
2018/06/18 10:12 EDT   -0.05   0.50 -999 -999 -999  83.7  75.0 1016.3 -9.9 -9.999 -99.9 -99.99 -9.99
2018/06/18 10:18 EDT   -0.09   0.45 -999 -999 -999  84.2  75.0 1016.2 -9.9 -9.999 -99.9 -99.99 -9.99
2018/06/18 10:24 EDT   -0.11   0.41 -999 -999 -999  84.6  75.0 1016.3 -9.9 -9.999 -99.9 -99.99 -9.99
2018/06/18 10:30 EDT   -0.12   0.38 -999 -999 -999  84.7  75.0 1016.2 -9.9 -9.999 -99.9 -99.99 -9.99
2018/06/18 10:36 EDT   -0.12   0.36 -999 -999 -999  84.9  75.0 1016.1 -9.9 -9.999 -99.9 -99.99 -9.99
2018/06/18 10:42 EDT   -0.11   0.35 -999 -999 -999  85.6  75.0 1015.9 -9.9 -9.999 -99.9 -99.99 -9.99
2018/06/18 10:48 EDT   -0.09   0.37 -999 -999 -999  85.3  75.2 1015.9 -9.9 -9.999 -99.9 -99.99 -9.99
2018/06/18 10:54 EDT   -0.05   0.33 -999 -999 -999  85.5  75.2 1015.9 -9.9 -9.999 -99.9 -99.99 -9.99
2018/06/18 11:00 EDT    0.00   0.34 -999 -999 -999  85.6  75.2 1015.9 -9.9 -9.999 -99.9 -99.99 -9.99
2018/06/18 11:06 EDT    0.07   0.40 -999 -999 -999  86.2  75.2 1015.9 -9.9 -9.999 -99.9 -99.99 -9.99
2018/06/18 11:12 EDT    0.14   0.48 -999 -999 -999  86.5  75.2 1015.9 -9.9 -9.999 -99.9 -99.99 -9.99
2018/06/18 11:18 EDT    0.23   0.56 -999 -999 -999  86.5  75.2 1016.0 -9.9 -9.999 -99.9 -99.99 -9.99
2018/06/18 11:24 EDT    0.33   0.68 -999 -999 -999  86.7  75.2 1016.0 -9.9 -9.999 -99.9 -99.99 -9.99
2018/06/18 11:30 EDT    0.44   0.80 -999 -999 -999  87.3  75.2 1015.9 -9.9 -9.999 -99.9 -99.99 -9.99
2018/06/18 11:36 EDT    0.56   0.97 -999 -999 -999  88.2  75.4 1016.0 -9.9 -9.999 -99.9 -99.99 -9.99
2018/06/18 11:42 EDT    0.68   1.12 -999 -999 -999  88.7  75.4 1015.9 -9.9 -9.999 -99.9 -99.99 -9.99
2018/06/18 11:48 EDT    0.82   1.31 -999 -999 -999  89.1  75.4 1015.9 -9.9 -9.999 -99.9 -99.99 -9.99
2018/06/18 11:54 EDT    0.96   1.49 -999 -999 -999  88.9  75.4 1015.9 -9.9 -9.999 -99.9 -99.99 -9.99
2018/06/18 12:00 EDT    1.11   1.66 -999 -999 -999  88.9  75.4 1015.9 -9.9 -9.999 -99.9 -99.99 -9.99
2018/06/18 12:06 EDT    1.27   1.88 -999 -999 -999  88.7  75.6 1015.8 -9.9 -9.999 -99.9 -99.99 -9.99
2018/06/18 12:12 EDT    1.43   2.05 -999 -999 -999  88.5  75.6 1015.7 -9.9 -9.999 -99.9 -99.99 -9.99
2018/06/18 12:18 EDT    1.59   2.23 -999 -999 -999  89.1  75.6 1015.6 -9.9 -9.999 -99.9 -99.99 -9.99
2018/06/18 12:24 EDT    1.75   2.43 -999 -999 -999  89.2  75.6 1015.5 -9.9 -9.999 -99.9 -99.99 -9.99
2018/06/18 12:30 EDT    1.91   2.60 -999 -999 -999  89.8  75.6 1015.5 -9.9 -9.999 -99.9 -99.99 -9.99
2018/06/18 12:36 EDT    2.08   2.83 -999 -999 -999  89.6  75.6 1015.3 -9.9 -9.999 -99.9 -99.99 -9.99
2018/06/18 12:42 EDT    2.24   2.97 -999 -999 -999  89.6  75.6 1015.2 -9.9 -9.999 -99.9 -99.99 -9.99
2018/06/18 12:48 EDT    2.40   3.08 -999 -999 -999  89.4  75.6 1015.1 -9.9 -9.999 -99.9 -99.99 -9.99
2018/06/18 12:54 EDT    2.56   3.29 -999 -999 -999  90.0  75.6 1015.1 -9.9 -9.999 -99.9 -99.99 -9.99
2018/06/18 13:00 EDT    2.72   3.47 -999 -999 -999  90.0  75.6 1015.0 -9.9 -9.999 -99.9 -99.99 -9.99
2018/06/18 13:06 EDT    2.88   3.62 -999 -999 -999  90.0  75.6 1015.0 -9.9 -9.999 -99.9 -99.99 -9.99
2018/06/18 13:12 EDT    3.03   3.73 -999 -999 -999  90.1  75.6 1015.0 -9.9 -9.999 -99.9 -99.99 -9.99
2018/06/18 13:18 EDT    3.18   3.89 -999 -999 -999  90.5  75.6 1014.9 -9.9 -9.999 -99.9 -99.99 -9.99
2018/06/18 13:24 EDT    3.32   4.07 -999 -999 -999  90.5  75.6 1014.8 -9.9 -9.999 -99.9 -99.99 -9.99
2018/06/18 13:30 EDT    3.47   4.17 -999 -999 -999  90.3  75.6 1014.8 -9.9 -9.999 -99.9 -99.99 -9.99
2018/06/18 13:36 EDT    3.60   4.31 -999 -999 -999  90.0  75.6 1014.7 -9.9 -9.999 -99.9 -99.99 -9.99
2018/06/18 13:42 EDT    3.74   4.46 -999 -999 -999  90.0  75.7 1014.7 -9.9 -9.999 -99.9 -99.99 -9.99
2018/06/18 13:48 EDT    3.87   4.59 -999 -999 -999  90.0  75.7 1014.6 -9.9 -9.999 -99.9 -99.99 -9.99
2018/06/18 13:54 EDT    4.00   4.72 -999 -999 -999  90.1  75.7 1014.6 -9.9 -9.999 -99.9 -99.99 -9.99
2018/06/18 14:00 EDT    4.12   4.82 -999 -999 -999  90.1  75.7 1014.5 -9.9 -9.999 -99.9 -99.99 -9.99
2018/06/18 14:06 EDT    4.24   4.96 -999 -999 -999  90.1  75.7 1014.4 -9.9 -9.999 -99.9 -99.99 -9.99
2018/06/18 14:12 EDT    4.36   5.08 -999 -999 -999  90.1  75.7 1014.3 -9.9 -9.999 -99.9 -99.99 -9.99
2018/06/18 14:18 EDT    4.47   5.18 -999 -999 -999  90.1  75.7 1014.2 -9.9 -9.999 -99.9 -99.99 -9.99
2018/06/18 14:24 EDT    4.58   5.29 -999 -999 -999  90.3  75.7 1014.1 -9.9 -9.999 -99.9 -99.99 -9.99
2018/06/18 14:30 EDT    4.68   5.41 -999 -999 -999  89.8  75.7 1014.1 -9.9 -9.999 -99.9 -99.99 -9.99
2018/06/18 14:36 EDT    4.78   5.53 -999 -999 -999  89.8  75.7 1014.0 -9.9 -9.999 -99.9 -99.99 -9.99
2018/06/18 14:42 EDT    4.88   5.59 -999 -999 -999  89.2  75.7 1013.9 -9.9 -9.999 -99.9 -99.99 -9.99
2018/06/18 14:48 EDT    4.97   5.68 -999 -999 -999  89.1  75.7 1013.8 -9.9 -9.999 -99.9 -99.99 -9.99
2018/06/18 14:54 EDT    5.06   5.73 -999 -999 -999  89.4  75.7 1013.7 -9.9 -9.999 -99.9 -99.99 -9.99
2018/06/18 15:00 EDT    5.14   5.84 -999 -999 -999  89.8  75.7 1013.7 -9.9 -9.999 -99.9 -99.99 -9.99
2018/06/18 15:06 EDT    5.21   5.88 -999 -999 -999  90.1  75.7 1013.6 -9.9 -9.999 -99.9 -99.99 -9.99
2018/06/18 15:12 EDT    5.28   5.94 -999 -999 -999  90.0  75.7 1013.6 -9.9 -9.999 -99.9 -99.99 -9.99
2018/06/18 15:18 EDT    5.34   5.99 -999 -999 -999  89.8  75.7 1013.5 -9.9 -9.999 -99.9 -99.99 -9.99
2018/06/18 15:24 EDT    5.40   6.05 -999 -999 -999  89.4  75.7 1013.4 -9.9 -9.999 -99.9 -99.99 -9.99
2018/06/18 15:30 EDT    5.45   6.09 -999 -999 -999  89.2  75.7 1013.3 -9.9 -9.999 -99.9 -99.99 -9.99
2018/06/18 15:36 EDT    5.49   5.89 -999 -999 -999  89.2  75.9 1013.2 -9.9 -9.999 -99.9 -99.99 -9.99
2018/06/18 15:42 EDT    5.52   6.16 -999 -999 -999  89.1  75.9 1013.1 -9.9 -9.999 -99.9 -99.99 -9.99
2018/06/18 15:48 EDT    5.55   6.17 -999 -999 -999  88.3  75.9 1013.0 -9.9 -9.999 -99.9 -99.99 -9.99
2018/06/18 15:54 EDT    5.57   6.21 -999 -999 -999  88.0  75.9 1013.0 -9.9 -9.999 -99.9 -99.99 -9.99
2018/06/18 16:00 EDT    5.58   6.22 -999 -999 -999  87.8  75.9 1012.8 -9.9 -9.999 -99.9 -99.99 -9.99
2018/06/18 16:06 EDT    5.58   6.19 -999 -999 -999  87.6  75.9 1012.7 -9.9 -9.999 -99.9 -99.99 -9.99
2018/06/18 16:12 EDT    5.57   6.20 -999 -999 -999  88.2  75.9 1012.6 -9.9 -9.999 -99.9 -99.99 -9.99
2018/06/18 16:18 EDT    5.56   6.20 -999 -999 -999  88.7  75.9 1012.6 -9.9 -9.999 -99.9 -99.99 -9.99
2018/06/18 16:24 EDT    5.53   6.15 -999 -999 -999  88.7  75.9 1012.6 -9.9 -9.999 -99.9 -99.99 -9.99
2018/06/18 16:30 EDT    5.50   6.16 -999 -999 -999  88.5  75.9 1012.5 -9.9 -9.999 -99.9 -99.99 -9.99
2018/06/18 16:36 EDT    5.47   6.11 -999 -999 -999  88.2  76.1 1012.4 -9.9 -9.999 -99.9 -99.99 -9.99
2018/06/18 16:42 EDT    5.42   6.07 -999 -999 -999  88.2  76.1 1012.3 -9.9 -9.999 -99.9 -99.99 -9.99
2018/06/18 16:48 EDT    5.37   6.01 -999 -999 -999  88.0  76.1 1012.3 -9.9 -9.999 -99.9 -99.99 -9.99
2018/06/18 16:54 EDT    5.31   6.00 -999 -999 -999  87.6  75.9 1012.2 -9.9 -9.999 -99.9 -99.99 -9.99
2018/06/18 17:00 EDT    5.24   5.91 -999 -999 -999  87.8  75.9 1012.1 -9.9 -9.999 -99.9 -99.99 -9.99
2018/06/18 17:06 EDT    5.17   5.85 -999 -999 -999  88.3  76.1 1012.0 -9.9 -9.999 -99.9 -99.99 -9.99
2018/06/18 17:12 EDT    5.09   5.79 -999 -999 -999  88.2  76.1 1012.0 -9.9 -9.999 -99.9 -99.99 -9.99
2018/06/18 17:18 EDT    5.01   5.69 -999 -999 -999  88.5  76.1 1011.9 -9.9 -9.999 -99.9 -99.99 -9.99
2018/06/18 17:24 EDT    4.92   5.58 -999 -999 -999  88.9  76.1 1011.8 -9.9 -9.999 -99.9 -99.99 -9.99
2018/06/18 17:30 EDT    4.83   5.47 -999 -999 -999  88.0  76.3 1011.7 -9.9 -9.999 -99.9 -99.99 -9.99
2018/06/18 17:36 EDT    4.73   5.37 -999 -999 -999  88.0  76.1 1011.5 -9.9 -9.999 -99.9 -99.99 -9.99
2018/06/18 17:42 EDT    4.63   5.22 -999 -999 -999  88.2  76.1 1011.3 -9.9 -9.999 -99.9 -99.99 -9.99
2018/06/18 17:48 EDT    4.53   5.14 -999 -999 -999  87.8  76.1 1011.1 -9.9 -9.999 -99.9 -99.99 -9.99
2018/06/18 17:54 EDT    4.43   4.99 -999 -999 -999  86.7  76.1 1011.1 -9.9 -9.999 -99.9 -99.99 -9.99
2018/06/18 18:00 EDT    4.32   4.87 -999 -999 -999  87.1  76.1 1010.9 -9.9 -9.999 -99.9 -99.99 -9.99
2018/06/18 18:06 EDT    4.21   4.75 -999 -999 -999  87.4  76.1 1010.9 -9.9 -9.999 -99.9 -99.99 -9.99
2018/06/18 18:12 EDT    4.10   4.61 -999 -999 -999  87.6  76.1 1010.7 -9.9 -9.999 -99.9 -99.99 -9.99
2018/06/18 18:18 EDT    3.99   4.49 -999 -999 -999  88.3  76.3 1010.8 -9.9 -9.999 -99.9 -99.99 -9.99
2018/06/18 18:24 EDT    3.87   4.36 -999 -999 -999  88.7  76.3 1010.8 -9.9 -9.999 -99.9 -99.99 -9.99
2018/06/18 18:30 EDT    3.76   4.24 -999 -999 -999  88.2  76.3 1010.6 -9.9 -9.999 -99.9 -99.99 -9.99
2018/06/18 18:36 EDT    3.65   4.10 -999 -999 -999  87.8  76.3 1010.4 -9.9 -9.999 -99.9 -99.99 -9.99
2018/06/18 18:42 EDT    3.53   3.96 -999 -999 -999  88.3  76.3 1010.2 -9.9 -9.999 -99.9 -99.99 -9.99
2018/06/18 18:48 EDT    3.42   3.85 -999 -999 -999  88.7  76.3 1010.2 -9.9 -9.999 -99.9 -99.99 -9.99
2018/06/18 18:54 EDT    3.31   3.71 -999 -999 -999  88.7  76.3 1010.2 -9.9 -9.999 -99.9 -99.99 -9.99
2018/06/18 19:00 EDT    3.20   3.59 -999 -999 -999  88.7  76.3 1010.3 -9.9 -9.999 -99.9 -99.99 -9.99
2018/06/18 19:06 EDT    3.09   3.46 -999 -999 -999  88.7  76.3 1010.2 -9.9 -9.999 -99.9 -99.99 -9.99
2018/06/18 19:12 EDT    2.98   3.33 -999 -999 -999  88.7  76.3 1010.1 -9.9 -9.999 -99.9 -99.99 -9.99
2018/06/18 19:18 EDT    2.87   3.21 -999 -999 -999  88.3  76.3 1010.1 -9.9 -9.999 -99.9 -99.99 -9.99
2018/06/18 19:24 EDT    2.76   3.09 -999 -999 -999  87.8  76.3 1010.2 -9.9 -9.999 -99.9 -99.99 -9.99
2018/06/18 19:30 EDT    2.66   2.99 -999 -999 -999  87.3  76.3 1010.1 -9.9 -9.999 -99.9 -99.99 -9.99
2018/06/18 19:36 EDT    2.56   2.88 -999 -999 -999  86.7  76.3 1010.0 -9.9 -9.999 -99.9 -99.99 -9.99
2018/06/18 19:42 EDT    2.46   2.77 -999 -999 -999  86.4  76.1 1010.0 -9.9 -9.999 -99.9 -99.99 -9.99
2018/06/18 19:48 EDT    2.36   2.66 -999 -999 -999  86.0  76.1 1010.0 -9.9 -9.999 -99.9 -99.99 -9.99
2018/06/18 19:54 EDT    2.26   2.56 -999 -999 -999  85.8  76.1 1010.0 -9.9 -9.999 -99.9 -99.99 -9.99
2018/06/18 20:00 EDT    2.17   2.47 -999 -999 -999  85.5  76.1 1010.1 -9.9 -9.999 -99.9 -99.99 -9.99
2018/06/18 20:06 EDT    2.08   2.33 -999 -999 -999  85.3  76.1 1010.0 -9.9 -9.999 -99.9 -99.99 -9.99
2018/06/18 20:12 EDT    1.99   2.25 -999 -999 -999  85.1  76.1 1010.0 -9.9 -9.999 -99.9 -99.99 -9.99
2018/06/18 20:18 EDT    1.90   2.15 -999 -999 -999  84.9  76.1 1010.1 -9.9 -9.999 -99.9 -99.99 -9.99
2018/06/18 20:24 EDT    1.81   2.08 -999 -999 -999  84.6  76.1 1010.1 -9.9 -9.999 -99.9 -99.99 -9.99
2018/06/18 20:30 EDT    1.72   1.98 -999 -999 -999  84.4  75.9 1010.2 -9.9 -9.999 -99.9 -99.99 -9.99
2018/06/18 20:36 EDT    1.64   1.91 -999 -999 -999  84.0  76.1 1010.3 -9.9 -9.999 -99.9 -99.99 -9.99
2018/06/18 20:42 EDT    1.55   1.84 -999 -999 -999  83.8  75.9 1010.6 -9.9 -9.999 -99.9 -99.99 -9.99
2018/06/18 20:48 EDT    1.47   1.75 -999 -999 -999  83.5  76.1 1010.8 -9.9 -9.999 -99.9 -99.99 -9.99
2018/06/18 20:54 EDT    1.39   1.67 -999 -999 -999  83.3  76.1 1010.8 -9.9 -9.999 -99.9 -99.99 -9.99
2018/06/18 21:00 EDT    1.30   1.60 -999 -999 -999  83.1  76.1 1010.8 -9.9 -9.999 -99.9 -99.99 -9.99
2018/06/18 21:06 EDT    1.22   1.51 -999 -999 -999  82.9  76.1 1010.6 -9.9 -9.999 -99.9 -99.99 -9.99
2018/06/18 21:12 EDT    1.14   1.46 -999 -999 -999  82.9  76.1 1010.5 -9.9 -9.999 -99.9 -99.99 -9.99
2018/06/18 21:18 EDT    1.06   1.37 -999 -999 -999  82.8  76.1 1010.4 -9.9 -9.999 -99.9 -99.99 -9.99
2018/06/18 21:24 EDT    0.99   1.32 -999 -999 -999  82.6  76.1 1010.3 -9.9 -9.999 -99.9 -99.99 -9.99
2018/06/18 21:30 EDT    0.91   1.24 -999 -999 -999  82.4  76.1 1010.3 -9.9 -9.999 -99.9 -99.99 -9.99
2018/06/18 21:36 EDT    0.84   1.20 -999 -999 -999  82.2  76.1 1010.4 -9.9 -9.999 -99.9 -99.99 -9.99
2018/06/18 21:42 EDT    0.77   1.13 -999 -999 -999  82.0  76.1 1010.4 -9.9 -9.999 -99.9 -99.99 -9.99
2018/06/18 21:48 EDT    0.70   1.06 -999 -999 -999  82.0  76.1 1010.5 -9.9 -9.999 -99.9 -99.99 -9.99
2018/06/18 21:54 EDT    0.63   1.01 -999 -999 -999  82.0  76.1 1010.6 -9.9 -9.999 -99.9 -99.99 -9.99
2018/06/18 22:00 EDT    0.57   0.95 -999 -999 -999  81.9  76.1 1010.6 -9.9 -9.999 -99.9 -99.99 -9.99
2018/06/18 22:06 EDT    0.52   0.89 -999 -999 -999  81.9  76.1 1010.7 -9.9 -9.999 -99.9 -99.99 -9.99
2018/06/18 22:12 EDT    0.47   0.85 -999 -999 -999  81.7  76.1 1010.8 -9.9 -9.999 -99.9 -99.99 -9.99
2018/06/18 22:18 EDT    0.43   0.78 -999 -999 -999  81.7  76.1 1010.8 -9.9 -9.999 -99.9 -99.99 -9.99
2018/06/18 22:24 EDT    0.40   0.75 -999 -999 -999  81.5  76.1 1010.8 -9.9 -9.999 -99.9 -99.99 -9.99
2018/06/18 22:30 EDT    0.37   0.72 -999 -999 -999  81.5  76.1 1010.8 -9.9 -9.999 -99.9 -99.99 -9.99
2018/06/18 22:36 EDT    0.36   0.71 -999 -999 -999  81.3  76.1 1010.7 -9.9 -9.999 -99.9 -99.99 -9.99
2018/06/18 22:42 EDT    0.35   0.61 -999 -999 -999  81.1  76.1 1010.6 -9.9 -9.999 -99.9 -99.99 -9.99
2018/06/18 22:48 EDT    0.35   0.61 -999 -999 -999  81.1  76.1 1010.7 -9.9 -9.999 -99.9 -99.99 -9.99
2018/06/18 22:54 EDT    0.37   0.65 -999 -999 -999  81.1  76.3 1010.6 -9.9 -9.999 -99.9 -99.99 -9.99
2018/06/18 23:00 EDT    0.40   0.67 -999 -999 -999  81.0  76.3 1010.6 -9.9 -9.999 -99.9 -99.99 -9.99
2018/06/18 23:06 EDT    0.43   0.68 -999 -999 -999  80.8  76.3 1010.5 -9.9 -9.999 -99.9 -99.99 -9.99
2018/06/18 23:12 EDT    0.48   0.62 -999 -999 -999  80.8  76.3 1010.5 -9.9 -9.999 -99.9 -99.99 -9.99
2018/06/18 23:18 EDT    0.55   0.79 -999 -999 -999  80.6  76.3 1010.3 -9.9 -9.999 -99.9 -99.99 -9.99
2018/06/18 23:24 EDT    0.62   0.75 -999 -999 -999  80.6  76.3 1010.3 -9.9 -9.999 -99.9 -99.99 -9.99
2018/06/18 23:30 EDT    0.71   0.80 -999 -999 -999  80.4  76.3 1010.1 -9.9 -9.999 -99.9 -99.99 -9.99
2018/06/18 23:36 EDT    0.81   1.26 -999 -999 -999  80.4  76.3 1010.0 -9.9 -9.999 -99.9 -99.99 -9.99
2018/06/18 23:42 EDT    0.91   1.17 -999 -999 -999  80.2  76.3 1009.9 -9.9 -9.999 -99.9 -99.99 -9.99
2018/06/18 23:48 EDT    1.03   1.39 -999 -999 -999  80.1  76.3 1009.8 -9.9 -9.999 -99.9 -99.99 -9.99
2018/06/18 23:54 EDT    1.16   1.79 -999 -999 -999  80.1  76.3 1009.7 -9.9 -9.999 -99.9 -99.99 -9.99
2018/06/19 00:00 EDT    1.30   1.70 -999 -999 -999  80.1  76.1 1009.7 -9.9 -9.999 -99.9 -99.99 -9.99
2018/06/19 00:06 EDT    1.44   1.98 -999 -999 -999  80.1  76.1 1009.7 -9.9 -9.999 -99.9 -99.99 -9.99
2018/06/19 00:12 EDT    1.60   2.06 -999 -999 -999  80.1  76.1 1009.7 -9.9 -9.999 -99.9 -99.99 -9.99
2018/06/19 00:18 EDT    1.75   2.24 -999 -999 -999  80.1  76.1 1009.7 -9.9 -9.999 -99.9 -99.99 -9.99
2018/06/19 00:24 EDT    1.92   2.47 -999 -999 -999  79.9  75.9 1009.7 -9.9 -9.999 -99.9 -99.99 -9.99
2018/06/19 00:30 EDT    2.08   2.61 -999 -999 -999  79.9  75.9 1009.6 -9.9 -9.999 -99.9 -99.99 -9.99
2018/06/19 00:36 EDT    2.25   2.80 -999 -999 -999  79.9  75.9 1009.6 -9.9 -9.999 -99.9 -99.99 -9.99
2018/06/19 00:42 EDT    2.42   2.97 -999 -999 -999  79.9  75.9 1009.7 -9.9 -9.999 -99.9 -99.99 -9.99
2018/06/19 00:48 EDT    2.60   3.16 -999 -999 -999  79.7  75.9 1009.7 -9.9 -9.999 -99.9 -99.99 -9.99
2018/06/19 00:54 EDT    2.77   3.31 -999 -999 -999  79.7  75.9 1009.7 -9.9 -9.999 -99.9 -99.99 -9.99
2018/06/19 01:00 EDT    2.94   3.44 -999 -999 -999  79.7  75.9 1009.7 -9.9 -9.999 -99.9 -99.99 -9.99
2018/06/19 01:06 EDT    3.10   3.59 -999 -999 -999  79.5  75.9 1009.6 -9.9 -9.999 -99.9 -99.99 -9.99
2018/06/19 01:12 EDT    3.27   3.79 -999 -999 -999  79.5  75.9 1009.4 -9.9 -9.999 -99.9 -99.99 -9.99
2018/06/19 01:18 EDT    3.43   3.89 -999 -999 -999  79.5  75.9 1009.3 -9.9 -9.999 -99.9 -99.99 -9.99
2018/06/19 01:24 EDT    3.59   4.08 -999 -999 -999  79.5  75.7 1009.3 -9.9 -9.999 -99.9 -99.99 -9.99
2018/06/19 01:30 EDT    3.75   4.16 -999 -999 -999  79.3  75.7 1009.3 -9.9 -9.999 -99.9 -99.99 -9.99
2018/06/19 01:36 EDT    3.90   4.35 -999 -999 -999  79.3  75.7 1009.3 -9.9 -9.999 -99.9 -99.99 -9.99
2018/06/19 01:42 EDT    4.04   4.48 -999 -999 -999  79.3  75.7 1009.1 -9.9 -9.999 -99.9 -99.99 -9.99
2018/06/19 01:48 EDT    4.19   4.58 -999 -999 -999  79.2  75.7 1009.1 -9.9 -9.999 -99.9 -99.99 -9.99
2018/06/19 01:54 EDT    4.32   4.72 -999 -999 -999  79.2  75.7 1009.0 -9.9 -9.999 -99.9 -99.99 -9.99
2018/06/19 02:00 EDT    4.45   4.88 -999 -999 -999  79.0  75.7 1008.9 -9.9 -9.999 -99.9 -99.99 -9.99
2018/06/19 02:06 EDT    4.58   5.00 -999 -999 -999  79.0  75.7 1008.8 -9.9 -9.999 -99.9 -99.99 -9.99
2018/06/19 02:12 EDT    4.70   5.12 -999 -999 -999  79.0  75.7 1008.7 -9.9 -9.999 -99.9 -99.99 -9.99
2018/06/19 02:18 EDT    4.82   5.22 -999 -999 -999  79.0  75.7 1008.6 -9.9 -9.999 -99.9 -99.99 -9.99
2018/06/19 02:24 EDT    4.94   5.37 -999 -999 -999  79.0  75.7 1008.5 -9.9 -9.999 -99.9 -99.99 -9.99
2018/06/19 02:30 EDT    5.05   5.49 -999 -999 -999  79.0  75.7 1008.4 -9.9 -9.999 -99.9 -99.99 -9.99
2018/06/19 02:36 EDT    5.15   5.54 -999 -999 -999  78.8  75.7 1008.4 -9.9 -9.999 -99.9 -99.99 -9.99
2018/06/19 02:42 EDT    5.25   5.68 -999 -999 -999  78.8  75.7 1008.3 -9.9 -9.999 -99.9 -99.99 -9.99
2018/06/19 02:48 EDT    5.35   5.77 -999 -999 -999  78.8  75.6 1008.2 -9.9 -9.999 -99.9 -99.99 -9.99
2018/06/19 02:54 EDT    5.44 -99.99 -999 -999 -999 -99.9 -99.9 -999.9 -9.9 -9.999 -99.9 -99.99 -9.99
2018/06/19 03:00 EDT    5.53 -99.99 -999 -999 -999 -99.9 -99.9 -999.9 -9.9 -9.999 -99.9 -99.99 -9.99
2018/06/19 03:06 EDT    5.61 -99.99 -999 -999 -999 -99.9 -99.9 -999.9 -9.9 -9.999 -99.9 -99.99 -9.99
2018/06/19 03:12 EDT    5.69 -99.99 -999 -999 -999 -99.9 -99.9 -999.9 -9.9 -9.999 -99.9 -99.99 -9.99
2018/06/19 03:18 EDT    5.76 -99.99 -999 -999 -999 -99.9 -99.9 -999.9 -9.9 -9.999 -99.9 -99.99 -9.99
2018/06/19 03:24 EDT    5.82 -99.99 -999 -999 -999 -99.9 -99.9 -999.9 -9.9 -9.999 -99.9 -99.99 -9.99
2018/06/19 03:30 EDT    5.89 -99.99 -999 -999 -999 -99.9 -99.9 -999.9 -9.9 -9.999 -99.9 -99.99 -9.99
2018/06/19 03:36 EDT    5.94 -99.99 -999 -999 -999 -99.9 -99.9 -999.9 -9.9 -9.999 -99.9 -99.99 -9.99
2018/06/19 03:42 EDT    5.99 -99.99 -999 -999 -999 -99.9 -99.9 -999.9 -9.9 -9.999 -99.9 -99.99 -9.99
2018/06/19 03:48 EDT    6.03 -99.99 -999 -999 -999 -99.9 -99.9 -999.9 -9.9 -9.999 -99.9 -99.99 -9.99
2018/06/19 03:54 EDT    6.07 -99.99 -999 -999 -999 -99.9 -99.9 -999.9 -9.9 -9.999 -99.9 -99.99 -9.99
2018/06/19 04:00 EDT    6.10 -99.99 -999 -999 -999 -99.9 -99.9 -999.9 -9.9 -9.999 -99.9 -99.99 -9.99
2018/06/19 04:06 EDT    6.12 -99.99 -999 -999 -999 -99.9 -99.9 -999.9 -9.9 -9.999 -99.9 -99.99 -9.99
2018/06/19 04:12 EDT    6.13 -99.99 -999 -999 -999 -99.9 -99.9 -999.9 -9.9 -9.999 -99.9 -99.99 -9.99
2018/06/19 04:18 EDT    6.14 -99.99 -999 -999 -999 -99.9 -99.9 -999.9 -9.9 -9.999 -99.9 -99.99 -9.99
2018/06/19 04:24 EDT    6.14 -99.99 -999 -999 -999 -99.9 -99.9 -999.9 -9.9 -9.999 -99.9 -99.99 -9.99
2018/06/19 04:30 EDT    6.13 -99.99 -999 -999 -999 -99.9 -99.9 -999.9 -9.9 -9.999 -99.9 -99.99 -9.99
2018/06/19 04:36 EDT    6.11 -99.99 -999 -999 -999 -99.9 -99.9 -999.9 -9.9 -9.999 -99.9 -99.99 -9.99
2018/06/19 04:42 EDT    6.08 -99.99 -999 -999 -999 -99.9 -99.9 -999.9 -9.9 -9.999 -99.9 -99.99 -9.99
2018/06/19 04:48 EDT    6.05 -99.99 -999 -999 -999 -99.9 -99.9 -999.9 -9.9 -9.999 -99.9 -99.99 -9.99
2018/06/19 04:54 EDT    6.01 -99.99 -999 -999 -999 -99.9 -99.9 -999.9 -9.9 -9.999 -99.9 -99.99 -9.99
2018/06/19 05:00 EDT    5.97 -99.99 -999 -999 -999 -99.9 -99.9 -999.9 -9.9 -9.999 -99.9 -99.99 -9.99
2018/06/19 05:06 EDT    5.91 -99.99 -999 -999 -999 -99.9 -99.9 -999.9 -9.9 -9.999 -99.9 -99.99 -9.99
2018/06/19 05:12 EDT    5.85 -99.99 -999 -999 -999 -99.9 -99.9 -999.9 -9.9 -9.999 -99.9 -99.99 -9.99
2018/06/19 05:18 EDT    5.78 -99.99 -999 -999 -999 -99.9 -99.9 -999.9 -9.9 -9.999 -99.9 -99.99 -9.99
2018/06/19 05:24 EDT    5.71 -99.99 -999 -999 -999 -99.9 -99.9 -999.9 -9.9 -9.999 -99.9 -99.99 -9.99
2018/06/19 05:30 EDT    5.63 -99.99 -999 -999 -999 -99.9 -99.9 -999.9 -9.9 -9.999 -99.9 -99.99 -9.99
2018/06/19 05:36 EDT    5.55 -99.99 -999 -999 -999 -99.9 -99.9 -999.9 -9.9 -9.999 -99.9 -99.99 -9.99
2018/06/19 05:42 EDT    5.46 -99.99 -999 -999 -999 -99.9 -99.9 -999.9 -9.9 -9.999 -99.9 -99.99 -9.99
2018/06/19 05:48 EDT    5.37 -99.99 -999 -999 -999 -99.9 -99.9 -999.9 -9.9 -9.999 -99.9 -99.99 -9.99
2018/06/19 05:54 EDT    5.27 -99.99 -999 -999 -999 -99.9 -99.9 -999.9 -9.9 -9.999 -99.9 -99.99 -9.99
2018/06/19 06:00 EDT    5.17 -99.99 -999 -999 -999 -99.9 -99.9 -999.9 -9.9 -9.999 -99.9 -99.99 -9.99
2018/06/19 06:06 EDT    5.07 -99.99 -999 -999 -999 -99.9 -99.9 -999.9 -9.9 -9.999 -99.9 -99.99 -9.99
2018/06/19 06:12 EDT    4.96 -99.99 -999 -999 -999 -99.9 -99.9 -999.9 -9.9 -9.999 -99.9 -99.99 -9.99
2018/06/19 06:18 EDT    4.85 -99.99 -999 -999 -999 -99.9 -99.9 -999.9 -9.9 -9.999 -99.9 -99.99 -9.99
2018/06/19 06:24 EDT    4.74 -99.99 -999 -999 -999 -99.9 -99.9 -999.9 -9.9 -9.999 -99.9 -99.99 -9.99
2018/06/19 06:30 EDT    4.63 -99.99 -999 -999 -999 -99.9 -99.9 -999.9 -9.9 -9.999 -99.9 -99.99 -9.99
2018/06/19 06:36 EDT    4.51 -99.99 -999 -999 -999 -99.9 -99.9 -999.9 -9.9 -9.999 -99.9 -99.99 -9.99
2018/06/19 06:42 EDT    4.40 -99.99 -999 -999 -999 -99.9 -99.9 -999.9 -9.9 -9.999 -99.9 -99.99 -9.99
2018/06/19 06:48 EDT    4.28 -99.99 -999 -999 -999 -99.9 -99.9 -999.9 -9.9 -9.999 -99.9 -99.99 -9.99
2018/06/19 06:54 EDT    4.17 -99.99 -999 -999 -999 -99.9 -99.9 -999.9 -9.9 -9.999 -99.9 -99.99 -9.99
2018/06/19 07:00 EDT    4.05 -99.99 -999 -999 -999 -99.9 -99.9 -999.9 -9.9 -9.999 -99.9 -99.99 -9.99
2018/06/19 07:06 EDT    3.93 -99.99 -999 -999 -999 -99.9 -99.9 -999.9 -9.9 -9.999 -99.9 -99.99 -9.99
2018/06/19 07:12 EDT    3.81 -99.99 -999 -999 -999 -99.9 -99.9 -999.9 -9.9 -9.999 -99.9 -99.99 -9.99
2018/06/19 07:18 EDT    3.70 -99.99 -999 -999 -999 -99.9 -99.9 -999.9 -9.9 -9.999 -99.9 -99.99 -9.99
2018/06/19 07:24 EDT    3.58 -99.99 -999 -999 -999 -99.9 -99.9 -999.9 -9.9 -9.999 -99.9 -99.99 -9.99
2018/06/19 07:30 EDT    3.46 -99.99 -999 -999 -999 -99.9 -99.9 -999.9 -9.9 -9.999 -99.9 -99.99 -9.99
2018/06/19 07:36 EDT    3.35 -99.99 -999 -999 -999 -99.9 -99.9 -999.9 -9.9 -9.999 -99.9 -99.99 -9.99
2018/06/19 07:42 EDT    3.24 -99.99 -999 -999 -999 -99.9 -99.9 -999.9 -9.9 -9.999 -99.9 -99.99 -9.99
2018/06/19 07:48 EDT    3.12 -99.99 -999 -999 -999 -99.9 -99.9 -999.9 -9.9 -9.999 -99.9 -99.99 -9.99
2018/06/19 07:54 EDT    3.01 -99.99 -999 -999 -999 -99.9 -99.9 -999.9 -9.9 -9.999 -99.9 -99.99 -9.99
2018/06/19 08:00 EDT    2.90 -99.99 -999 -999 -999 -99.9 -99.9 -999.9 -9.9 -9.999 -99.9 -99.99 -9.99
2018/06/19 08:06 EDT    2.79 -99.99 -999 -999 -999 -99.9 -99.9 -999.9 -9.9 -9.999 -99.9 -99.99 -9.99
2018/06/19 08:12 EDT    2.68 -99.99 -999 -999 -999 -99.9 -99.9 -999.9 -9.9 -9.999 -99.9 -99.99 -9.99
2018/06/19 08:18 EDT    2.58 -99.99 -999 -999 -999 -99.9 -99.9 -999.9 -9.9 -9.999 -99.9 -99.99 -9.99
2018/06/19 08:24 EDT    2.47 -99.99 -999 -999 -999 -99.9 -99.9 -999.9 -9.9 -9.999 -99.9 -99.99 -9.99
2018/06/19 08:30 EDT    2.37 -99.99 -999 -999 -999 -99.9 -99.9 -999.9 -9.9 -9.999 -99.9 -99.99 -9.99
2018/06/19 08:36 EDT    2.26 -99.99 -999 -999 -999 -99.9 -99.9 -999.9 -9.9 -9.999 -99.9 -99.99 -9.99
2018/06/19 08:42 EDT    2.16 -99.99 -999 -999 -999 -99.9 -99.9 -999.9 -9.9 -9.999 -99.9 -99.99 -9.99
2018/06/19 08:48 EDT    2.05 -99.99 -999 -999 -999 -99.9 -99.9 -999.9 -9.9 -9.999 -99.9 -99.99 -9.99
2018/06/19 08:54 EDT    1.95 -99.99 -999 -999 -999 -99.9 -99.9 -999.9 -9.9 -9.999 -99.9 -99.99 -9.99

Revised: 10/15/2013
NOAA / National Ocean Service
Web site owner: Center for Operational Oceanographic Products and Services